sensor_id;sensor_type;location;lat;lon;timestamp;P1;durP1;ratioP1;P2;durP2;ratioP2
462;SDS011;218;51.902;9.542;2022-12-08T00:01:13;20.08;;;16.88;;
462;SDS011;218;51.902;9.542;2022-12-08T00:03:42;20.27;;;18.15;;
462;SDS011;218;51.902;9.542;2022-12-08T00:06:11;18.63;;;16.58;;
462;SDS011;218;51.902;9.542;2022-12-08T00:09:04;20.63;;;17.90;;
462;SDS011;218;51.902;9.542;2022-12-08T00:11:50;18.95;;;16.10;;
462;SDS011;218;51.902;9.542;2022-12-08T00:14:18;21.45;;;17.63;;
462;SDS011;218;51.902;9.542;2022-12-08T00:16:47;18.45;;;15.38;;
462;SDS011;218;51.902;9.542;2022-12-08T00:19:14;19.92;;;16.25;;
462;SDS011;218;51.902;9.542;2022-12-08T00:21:40;18.48;;;16.23;;
462;SDS011;218;51.902;9.542;2022-12-08T00:24:07;20.70;;;17.17;;
462;SDS011;218;51.902;9.542;2022-12-08T00:26:35;21.08;;;16.15;;
462;SDS011;218;51.902;9.542;2022-12-08T00:29:02;18.05;;;16.33;;
462;SDS011;218;51.902;9.542;2022-12-08T00:31:30;19.00;;;16.95;;
462;SDS011;218;51.902;9.542;2022-12-08T00:33:58;18.48;;;16.13;;
462;SDS011;218;51.902;9.542;2022-12-08T00:36:26;22.20;;;16.75;;
462;SDS011;218;51.902;9.542;2022-12-08T00:38:53;20.70;;;16.75;;
462;SDS011;218;51.902;9.542;2022-12-08T00:41:21;19.77;;;17.58;;
462;SDS011;218;51.902;9.542;2022-12-08T00:44:10;21.65;;;17.17;;
462;SDS011;218;51.902;9.542;2022-12-08T00:46:38;21.45;;;17.58;;
462;SDS011;218;51.902;9.542;2022-12-08T00:49:07;20.58;;;17.15;;
462;SDS011;218;51.902;9.542;2022-12-08T00:51:34;24.05;;;18.35;;
462;SDS011;218;51.902;9.542;2022-12-08T00:54:01;20.10;;;17.40;;
462;SDS011;218;51.902;9.542;2022-12-08T00:56:28;24.48;;;18.80;;
462;SDS011;218;51.902;9.542;2022-12-08T00:58:56;21.23;;;17.85;;
462;SDS011;218;51.902;9.542;2022-12-08T01:01:23;23.50;;;18.83;;
462;SDS011;218;51.902;9.542;2022-12-08T01:03:50;20.25;;;17.90;;
462;SDS011;218;51.902;9.542;2022-12-08T01:06:18;23.67;;;19.75;;
462;SDS011;218;51.902;9.542;2022-12-08T01:08:45;22.17;;;17.50;;
462;SDS011;218;51.902;9.542;2022-12-08T01:11:13;23.70;;;17.42;;
462;SDS011;218;51.902;9.542;2022-12-08T01:13:44;20.63;;;17.67;;
462;SDS011;218;51.902;9.542;2022-12-08T01:16:17;20.42;;;17.60;;
462;SDS011;218;51.902;9.542;2022-12-08T01:18:45;24.23;;;17.27;;
462;SDS011;218;51.902;9.542;2022-12-08T01:21:12;20.25;;;18.05;;
462;SDS011;218;51.902;9.542;2022-12-08T01:23:40;20.98;;;16.55;;
462;SDS011;218;51.902;9.542;2022-12-08T01:26:07;22.40;;;16.75;;
462;SDS011;218;51.902;9.542;2022-12-08T01:28:37;22.33;;;17.92;;
462;SDS011;218;51.902;9.542;2022-12-08T01:31:09;20.67;;;16.05;;
462;SDS011;218;51.902;9.542;2022-12-08T01:33:37;21.90;;;17.10;;
462;SDS011;218;51.902;9.542;2022-12-08T01:36:05;19.40;;;16.02;;
462;SDS011;218;51.902;9.542;2022-12-08T01:38:32;22.38;;;17.27;;
462;SDS011;218;51.902;9.542;2022-12-08T01:41:01;21.52;;;17.55;;
462;SDS011;218;51.902;9.542;2022-12-08T01:46:26;22.67;;;18.70;;
462;SDS011;218;51.902;9.542;2022-12-08T01:48:55;23.80;;;17.15;;
462;SDS011;218;51.902;9.542;2022-12-08T01:51:28;21.38;;;16.60;;
462;SDS011;218;51.902;9.542;2022-12-08T01:53:58;23.42;;;17.08;;
462;SDS011;218;51.902;9.542;2022-12-08T01:56:29;23.48;;;17.88;;
462;SDS011;218;51.902;9.542;2022-12-08T01:59:02;21.42;;;16.27;;
462;SDS011;218;51.902;9.542;2022-12-08T02:01:30;19.55;;;15.25;;
462;SDS011;218;51.902;9.542;2022-12-08T02:03:57;19.67;;;15.57;;
462;SDS011;218;51.902;9.542;2022-12-08T02:06:25;20.33;;;16.23;;
462;SDS011;218;51.902;9.542;2022-12-08T02:08:55;18.58;;;16.70;;
462;SDS011;218;51.902;9.542;2022-12-08T02:11:24;22.88;;;16.48;;
462;SDS011;218;51.902;9.542;2022-12-08T02:13:53;21.25;;;17.40;;
462;SDS011;218;51.902;9.542;2022-12-08T02:16:25;20.05;;;15.45;;
462;SDS011;218;51.902;9.542;2022-12-08T02:19:01;18.83;;;15.63;;
462;SDS011;218;51.902;9.542;2022-12-08T02:21:41;19.73;;;15.18;;
462;SDS011;218;51.902;9.542;2022-12-08T02:24:16;20.10;;;16.75;;
462;SDS011;218;51.902;9.542;2022-12-08T02:27:03;22.92;;;17.45;;
462;SDS011;218;51.902;9.542;2022-12-08T02:30:02;19.80;;;16.35;;
462;SDS011;218;51.902;9.542;2022-12-08T02:35:55;19.10;;;14.82;;
462;SDS011;218;51.902;9.542;2022-12-08T02:38:28;18.40;;;14.40;;
462;SDS011;218;51.902;9.542;2022-12-08T02:41:12;19.00;;;16.60;;
462;SDS011;218;51.902;9.542;2022-12-08T02:43:44;19.33;;;14.95;;
462;SDS011;218;51.902;9.542;2022-12-08T02:46:15;18.48;;;14.88;;
462;SDS011;218;51.902;9.542;2022-12-08T02:48:47;17.77;;;14.25;;
462;SDS011;218;51.902;9.542;2022-12-08T02:51:16;21.50;;;17.08;;
462;SDS011;218;51.902;9.542;2022-12-08T02:53:43;18.60;;;14.45;;
462;SDS011;218;51.902;9.542;2022-12-08T02:56:13;18.23;;;15.00;;
462;SDS011;218;51.902;9.542;2022-12-08T03:01:44;17.13;;;15.10;;
462;SDS011;218;51.902;9.542;2022-12-08T03:04:29;22.17;;;16.20;;
462;SDS011;218;51.902;9.542;2022-12-08T03:07:05;22.08;;;16.20;;
462;SDS011;218;51.902;9.542;2022-12-08T03:09:38;24.08;;;16.63;;
462;SDS011;218;51.902;9.542;2022-12-08T03:12:11;22.33;;;16.45;;
462;SDS011;218;51.902;9.542;2022-12-08T03:14:43;17.52;;;15.15;;
462;SDS011;218;51.902;9.542;2022-12-08T03:17:15;24.60;;;15.73;;
462;SDS011;218;51.902;9.542;2022-12-08T03:19:45;17.80;;;14.50;;
462;SDS011;218;51.902;9.542;2022-12-08T03:22:15;22.30;;;16.98;;
462;SDS011;218;51.902;9.542;2022-12-08T03:24:46;22.73;;;16.77;;
462;SDS011;218;51.902;9.542;2022-12-08T03:27:15;20.02;;;16.08;;
462;SDS011;218;51.902;9.542;2022-12-08T03:29:45;24.42;;;16.65;;
462;SDS011;218;51.902;9.542;2022-12-08T03:32:13;24.85;;;17.35;;
462;SDS011;218;51.902;9.542;2022-12-08T03:34:47;26.30;;;19.33;;
462;SDS011;218;51.902;9.542;2022-12-08T03:37:17;27.27;;;17.65;;
462;SDS011;218;51.902;9.542;2022-12-08T03:39:45;24.15;;;17.75;;
462;SDS011;218;51.902;9.542;2022-12-08T03:42:12;25.38;;;17.00;;
462;SDS011;218;51.902;9.542;2022-12-08T03:44:39;24.40;;;17.23;;
462;SDS011;218;51.902;9.542;2022-12-08T03:47:06;21.60;;;15.50;;
462;SDS011;218;51.902;9.542;2022-12-08T03:49:33;24.15;;;17.27;;
462;SDS011;218;51.902;9.542;2022-12-08T03:52:00;23.33;;;17.10;;
462;SDS011;218;51.902;9.542;2022-12-08T03:54:28;19.88;;;17.23;;
462;SDS011;218;51.902;9.542;2022-12-08T03:56:55;20.20;;;15.98;;
462;SDS011;218;51.902;9.542;2022-12-08T03:59:22;20.77;;;15.98;;
462;SDS011;218;51.902;9.542;2022-12-08T04:01:49;22.17;;;16.73;;
462;SDS011;218;51.902;9.542;2022-12-08T04:04:16;25.05;;;17.60;;
462;SDS011;218;51.902;9.542;2022-12-08T04:06:43;25.48;;;18.50;;
462;SDS011;218;51.902;9.542;2022-12-08T04:09:10;22.83;;;16.88;;
462;SDS011;218;51.902;9.542;2022-12-08T04:11:38;23.75;;;16.67;;
462;SDS011;218;51.902;9.542;2022-12-08T04:14:05;22.02;;;16.00;;
462;SDS011;218;51.902;9.542;2022-12-08T04:16:32;18.63;;;14.07;;
462;SDS011;218;51.902;9.542;2022-12-08T04:18:59;22.30;;;16.88;;
462;SDS011;218;51.902;9.542;2022-12-08T04:21:26;18.15;;;14.38;;
462;SDS011;218;51.902;9.542;2022-12-08T04:23:53;20.42;;;15.38;;
462;SDS011;218;51.902;9.542;2022-12-08T04:26:20;17.77;;;13.73;;
462;SDS011;218;51.902;9.542;2022-12-08T04:28:48;20.52;;;13.68;;
462;SDS011;218;51.902;9.542;2022-12-08T04:31:15;17.38;;;13.95;;
462;SDS011;218;51.902;9.542;2022-12-08T04:33:42;16.15;;;13.93;;
462;SDS011;218;51.902;9.542;2022-12-08T04:36:09;18.13;;;13.52;;
462;SDS011;218;51.902;9.542;2022-12-08T04:38:36;15.57;;;13.95;;
462;SDS011;218;51.902;9.542;2022-12-08T04:41:03;17.55;;;13.60;;
462;SDS011;218;51.902;9.542;2022-12-08T04:43:30;15.95;;;13.30;;
462;SDS011;218;51.902;9.542;2022-12-08T04:45:59;19.40;;;14.02;;
462;SDS011;218;51.902;9.542;2022-12-08T04:48:26;17.17;;;12.65;;
462;SDS011;218;51.902;9.542;2022-12-08T04:50:53;17.75;;;14.00;;
462;SDS011;218;51.902;9.542;2022-12-08T04:53:20;16.38;;;12.73;;
462;SDS011;218;51.902;9.542;2022-12-08T04:55:47;18.95;;;14.43;;
462;SDS011;218;51.902;9.542;2022-12-08T04:58:14;16.60;;;13.65;;
462;SDS011;218;51.902;9.542;2022-12-08T05:00:42;14.93;;;12.82;;
462;SDS011;218;51.902;9.542;2022-12-08T05:03:11;16.13;;;14.30;;
462;SDS011;218;51.902;9.542;2022-12-08T05:05:39;17.65;;;13.00;;
462;SDS011;218;51.902;9.542;2022-12-08T05:08:06;15.57;;;13.77;;
462;SDS011;218;51.902;9.542;2022-12-08T05:10:34;16.83;;;12.82;;
462;SDS011;218;51.902;9.542;2022-12-08T05:13:01;16.88;;;12.75;;
462;SDS011;218;51.902;9.542;2022-12-08T05:15:28;17.55;;;12.75;;
462;SDS011;218;51.902;9.542;2022-12-08T05:17:55;18.77;;;14.05;;
462;SDS011;218;51.902;9.542;2022-12-08T05:20:23;13.80;;;11.95;;
462;SDS011;218;51.902;9.542;2022-12-08T05:22:50;19.00;;;13.52;;
462;SDS011;218;51.902;9.542;2022-12-08T05:25:18;13.75;;;11.70;;
462;SDS011;218;51.902;9.542;2022-12-08T05:27:45;19.98;;;13.77;;
462;SDS011;218;51.902;9.542;2022-12-08T05:30:12;15.13;;;12.90;;
462;SDS011;218;51.902;9.542;2022-12-08T05:32:39;15.20;;;12.57;;
462;SDS011;218;51.902;9.542;2022-12-08T05:35:06;18.08;;;13.40;;
462;SDS011;218;51.902;9.542;2022-12-08T05:37:35;16.35;;;13.68;;
462;SDS011;218;51.902;9.542;2022-12-08T05:40:02;18.52;;;12.23;;
462;SDS011;218;51.902;9.542;2022-12-08T05:42:29;15.75;;;12.50;;
462;SDS011;218;51.902;9.542;2022-12-08T05:44:56;16.60;;;12.27;;
462;SDS011;218;51.902;9.542;2022-12-08T05:47:23;20.02;;;13.80;;
462;SDS011;218;51.902;9.542;2022-12-08T05:49:50;18.30;;;12.85;;
462;SDS011;218;51.902;9.542;2022-12-08T05:52:17;15.43;;;12.25;;
462;SDS011;218;51.902;9.542;2022-12-08T05:54:45;14.50;;;12.35;;
462;SDS011;218;51.902;9.542;2022-12-08T05:57:12;13.77;;;12.00;;
462;SDS011;218;51.902;9.542;2022-12-08T05:59:39;19.25;;;12.35;;
462;SDS011;218;51.902;9.542;2022-12-08T06:02:06;17.23;;;13.15;;
462;SDS011;218;51.902;9.542;2022-12-08T06:04:34;18.42;;;12.05;;
462;SDS011;218;51.902;9.542;2022-12-08T06:07:01;19.85;;;16.48;;
462;SDS011;218;51.902;9.542;2022-12-08T06:09:28;20.27;;;15.48;;
462;SDS011;218;51.902;9.542;2022-12-08T06:11:56;19.08;;;15.77;;
462;SDS011;218;51.902;9.542;2022-12-08T06:14:23;21.60;;;17.55;;
462;SDS011;218;51.902;9.542;2022-12-08T06:16:50;20.20;;;17.45;;
462;SDS011;218;51.902;9.542;2022-12-08T06:19:17;21.27;;;19.08;;
462;SDS011;218;51.902;9.542;2022-12-08T06:21:44;20.38;;;17.58;;
462;SDS011;218;51.902;9.542;2022-12-08T06:24:11;19.15;;;16.42;;
462;SDS011;218;51.902;9.542;2022-12-08T06:26:38;14.70;;;13.18;;
462;SDS011;218;51.902;9.542;2022-12-08T06:29:07;17.35;;;13.15;;
462;SDS011;218;51.902;9.542;2022-12-08T06:31:34;15.70;;;13.55;;
462;SDS011;218;51.902;9.542;2022-12-08T06:34:00;15.45;;;13.40;;
462;SDS011;218;51.902;9.542;2022-12-08T06:36:27;15.38;;;12.20;;
462;SDS011;218;51.902;9.542;2022-12-08T06:38:55;19.85;;;13.93;;
462;SDS011;218;51.902;9.542;2022-12-08T06:41:22;13.75;;;11.98;;
462;SDS011;218;51.902;9.542;2022-12-08T06:43:49;17.02;;;12.32;;
462;SDS011;218;51.902;9.542;2022-12-08T06:46:18;13.98;;;11.77;;
462;SDS011;218;51.902;9.542;2022-12-08T06:48:45;15.40;;;12.05;;
462;SDS011;218;51.902;9.542;2022-12-08T06:51:13;14.35;;;12.57;;
462;SDS011;218;51.902;9.542;2022-12-08T06:53:42;15.35;;;11.25;;
462;SDS011;218;51.902;9.542;2022-12-08T06:56:09;13.77;;;11.63;;
462;SDS011;218;51.902;9.542;2022-12-08T06:58:38;12.98;;;10.77;;
462;SDS011;218;51.902;9.542;2022-12-08T07:01:05;14.07;;;10.98;;
462;SDS011;218;51.902;9.542;2022-12-08T07:03:35;17.00;;;11.27;;
462;SDS011;218;51.902;9.542;2022-12-08T07:06:03;15.15;;;10.88;;
462;SDS011;218;51.902;9.542;2022-12-08T07:08:31;12.43;;;10.40;;
462;SDS011;218;51.902;9.542;2022-12-08T07:10:58;13.88;;;9.48;;
462;SDS011;218;51.902;9.542;2022-12-08T07:13:25;11.98;;;10.07;;
462;SDS011;218;51.902;9.542;2022-12-08T07:15:52;12.48;;;11.00;;
462;SDS011;218;51.902;9.542;2022-12-08T07:18:19;12.65;;;11.35;;
462;SDS011;218;51.902;9.542;2022-12-08T07:20:47;9.30;;;8.35;;
462;SDS011;218;51.902;9.542;2022-12-08T07:23:14;12.60;;;10.82;;
462;SDS011;218;51.902;9.542;2022-12-08T07:25:41;12.45;;;9.95;;
462;SDS011;218;51.902;9.542;2022-12-08T07:28:08;14.45;;;11.05;;
462;SDS011;218;51.902;9.542;2022-12-08T07:30:36;12.90;;;10.80;;
462;SDS011;218;51.902;9.542;2022-12-08T07:33:03;11.90;;;9.75;;
462;SDS011;218;51.902;9.542;2022-12-08T07:35:30;13.55;;;10.38;;
462;SDS011;218;51.902;9.542;2022-12-08T07:37:59;12.77;;;11.02;;
462;SDS011;218;51.902;9.542;2022-12-08T07:40:25;11.48;;;9.35;;
462;SDS011;218;51.902;9.542;2022-12-08T07:42:52;13.38;;;11.60;;
462;SDS011;218;51.902;9.542;2022-12-08T07:45:19;13.73;;;11.70;;
462;SDS011;218;51.902;9.542;2022-12-08T07:47:46;14.52;;;12.82;;
462;SDS011;218;51.902;9.542;2022-12-08T07:50:13;17.73;;;15.55;;
462;SDS011;218;51.902;9.542;2022-12-08T07:52:40;22.17;;;14.65;;
462;SDS011;218;51.902;9.542;2022-12-08T07:55:09;16.27;;;14.55;;
462;SDS011;218;51.902;9.542;2022-12-08T07:57:36;17.55;;;15.40;;
462;SDS011;218;51.902;9.542;2022-12-08T08:00:03;14.88;;;12.63;;
462;SDS011;218;51.902;9.542;2022-12-08T08:02:31;18.23;;;14.15;;
462;SDS011;218;51.902;9.542;2022-12-08T08:04:58;18.60;;;13.30;;
462;SDS011;218;51.902;9.542;2022-12-08T08:07:25;20.42;;;15.55;;
462;SDS011;218;51.902;9.542;2022-12-08T08:09:52;15.18;;;13.65;;
462;SDS011;218;51.902;9.542;2022-12-08T08:12:20;18.23;;;13.63;;
462;SDS011;218;51.902;9.542;2022-12-08T08:14:47;13.30;;;11.02;;
462;SDS011;218;51.902;9.542;2022-12-08T08:17:14;13.20;;;11.27;;
462;SDS011;218;51.902;9.542;2022-12-08T08:19:41;14.38;;;11.50;;
462;SDS011;218;51.902;9.542;2022-12-08T08:22:08;11.40;;;10.25;;
462;SDS011;218;51.902;9.542;2022-12-08T08:24:34;12.85;;;9.60;;
462;SDS011;218;51.902;9.542;2022-12-08T08:27:01;11.52;;;9.93;;
462;SDS011;218;51.902;9.542;2022-12-08T08:29:30;12.70;;;10.13;;
462;SDS011;218;51.902;9.542;2022-12-08T08:31:57;14.23;;;10.23;;
462;SDS011;218;51.902;9.542;2022-12-08T08:34:24;13.00;;;10.80;;
462;SDS011;218;51.902;9.542;2022-12-08T08:36:51;9.60;;;8.70;;
462;SDS011;218;51.902;9.542;2022-12-08T08:39:18;11.27;;;10.05;;
462;SDS011;218;51.902;9.542;2022-12-08T08:41:45;9.93;;;8.95;;
462;SDS011;218;51.902;9.542;2022-12-08T08:44:12;11.02;;;8.77;;
462;SDS011;218;51.902;9.542;2022-12-08T08:46:41;10.13;;;8.93;;
462;SDS011;218;51.902;9.542;2022-12-08T08:49:08;10.90;;;9.30;;
462;SDS011;218;51.902;9.542;2022-12-08T08:51:35;11.93;;;9.52;;
462;SDS011;218;51.902;9.542;2022-12-08T08:54:02;10.63;;;9.45;;
462;SDS011;218;51.902;9.542;2022-12-08T08:56:29;10.10;;;9.05;;
462;SDS011;218;51.902;9.542;2022-12-08T08:58:56;11.30;;;9.43;;
462;SDS011;218;51.902;9.542;2022-12-08T09:01:23;10.75;;;9.00;;
462;SDS011;218;51.902;9.542;2022-12-08T09:03:53;11.35;;;9.65;;
462;SDS011;218;51.902;9.542;2022-12-08T09:06:20;12.48;;;9.32;;
462;SDS011;218;51.902;9.542;2022-12-08T09:08:48;11.38;;;8.90;;
462;SDS011;218;51.902;9.542;2022-12-08T09:11:16;12.95;;;10.55;;
462;SDS011;218;51.902;9.542;2022-12-08T09:13:43;12.00;;;9.95;;
462;SDS011;218;51.902;9.542;2022-12-08T09:16:12;9.88;;;8.40;;
462;SDS011;218;51.902;9.542;2022-12-08T09:18:39;11.05;;;9.85;;
462;SDS011;218;51.902;9.542;2022-12-08T09:21:07;10.50;;;9.18;;
462;SDS011;218;51.902;9.542;2022-12-08T09:23:37;12.07;;;9.55;;
462;SDS011;218;51.902;9.542;2022-12-08T09:26:07;10.80;;;8.77;;
462;SDS011;218;51.902;9.542;2022-12-08T09:28:34;11.32;;;9.50;;
462;SDS011;218;51.902;9.542;2022-12-08T09:31:01;12.23;;;10.10;;
462;SDS011;218;51.902;9.542;2022-12-08T09:33:29;10.13;;;8.27;;
462;SDS011;218;51.902;9.542;2022-12-08T09:36:00;11.55;;;10.30;;
462;SDS011;218;51.902;9.542;2022-12-08T09:38:29;11.75;;;9.88;;
462;SDS011;218;51.902;9.542;2022-12-08T09:40:58;12.30;;;9.73;;
462;SDS011;218;51.902;9.542;2022-12-08T09:43:36;14.77;;;9.93;;
462;SDS011;218;51.902;9.542;2022-12-08T09:46:12;11.23;;;9.98;;
462;SDS011;218;51.902;9.542;2022-12-08T09:48:44;10.05;;;8.98;;
462;SDS011;218;51.902;9.542;2022-12-08T09:51:19;11.20;;;9.68;;
462;SDS011;218;51.902;9.542;2022-12-08T09:53:49;17.38;;;10.35;;
462;SDS011;218;51.902;9.542;2022-12-08T09:56:20;14.40;;;10.32;;
462;SDS011;218;51.902;9.542;2022-12-08T09:58:49;13.25;;;11.25;;
462;SDS011;218;51.902;9.542;2022-12-08T10:01:22;10.95;;;9.73;;
462;SDS011;218;51.902;9.542;2022-12-08T10:03:53;11.18;;;10.00;;
462;SDS011;218;51.902;9.542;2022-12-08T10:06:22;10.23;;;9.10;;
462;SDS011;218;51.902;9.542;2022-12-08T10:08:57;10.75;;;9.75;;
462;SDS011;218;51.902;9.542;2022-12-08T10:11:31;11.80;;;9.60;;
462;SDS011;218;51.902;9.542;2022-12-08T10:14:07;11.00;;;9.90;;
462;SDS011;218;51.902;9.542;2022-12-08T10:16:43;10.95;;;9.05;;
462;SDS011;218;51.902;9.542;2022-12-08T10:19:16;12.00;;;8.40;;
462;SDS011;218;51.902;9.542;2022-12-08T10:21:45;10.73;;;8.95;;
462;SDS011;218;51.902;9.542;2022-12-08T10:24:17;12.70;;;9.27;;
462;SDS011;218;51.902;9.542;2022-12-08T10:26:48;10.20;;;8.35;;
462;SDS011;218;51.902;9.542;2022-12-08T10:29:15;11.05;;;9.65;;
462;SDS011;218;51.902;9.542;2022-12-08T10:31:43;9.23;;;8.20;;
462;SDS011;218;51.902;9.542;2022-12-08T10:34:13;9.75;;;8.10;;
462;SDS011;218;51.902;9.542;2022-12-08T10:36:46;10.13;;;7.25;;
462;SDS011;218;51.902;9.542;2022-12-08T10:39:32;11.60;;;8.60;;
462;SDS011;218;51.902;9.542;2022-12-08T10:42:01;7.97;;;7.25;;
462;SDS011;218;51.902;9.542;2022-12-08T10:44:37;9.00;;;6.90;;
462;SDS011;218;51.902;9.542;2022-12-08T10:47:13;6.80;;;6.10;;
462;SDS011;218;51.902;9.542;2022-12-08T10:49:41;6.90;;;5.85;;
462;SDS011;218;51.902;9.542;2022-12-08T10:52:08;8.05;;;6.40;;
462;SDS011;218;51.902;9.542;2022-12-08T10:54:53;6.60;;;5.88;;
462;SDS011;218;51.902;9.542;2022-12-08T10:57:25;5.72;;;5.22;;
462;SDS011;218;51.902;9.542;2022-12-08T10:59:53;6.07;;;5.50;;
462;SDS011;218;51.902;9.542;2022-12-08T11:02:21;6.68;;;6.07;;
462;SDS011;218;51.902;9.542;2022-12-08T11:04:53;5.32;;;4.88;;
462;SDS011;218;51.902;9.542;2022-12-08T11:07:23;6.43;;;5.82;;
462;SDS011;218;51.902;9.542;2022-12-08T11:09:53;6.30;;;5.70;;
462;SDS011;218;51.902;9.542;2022-12-08T11:12:23;5.82;;;5.32;;
462;SDS011;218;51.902;9.542;2022-12-08T11:14:54;5.68;;;4.70;;
462;SDS011;218;51.902;9.542;2022-12-08T11:17:26;4.88;;;4.47;;
462;SDS011;218;51.902;9.542;2022-12-08T11:19:55;5.85;;;5.03;;
462;SDS011;218;51.902;9.542;2022-12-08T11:22:24;6.30;;;5.72;;
462;SDS011;218;51.902;9.542;2022-12-08T11:25:00;5.28;;;4.78;;
462;SDS011;218;51.902;9.542;2022-12-08T11:27:28;4.85;;;4.35;;
462;SDS011;218;51.902;9.542;2022-12-08T11:29:57;4.75;;;4.35;;
462;SDS011;218;51.902;9.542;2022-12-08T11:32:25;5.97;;;5.38;;
462;SDS011;218;51.902;9.542;2022-12-08T11:34:54;6.30;;;5.65;;
462;SDS011;218;51.902;9.542;2022-12-08T11:37:26;5.55;;;4.95;;
462;SDS011;218;51.902;9.542;2022-12-08T11:39:57;4.65;;;4.35;;
462;SDS011;218;51.902;9.542;2022-12-08T11:42:30;5.40;;;4.97;;
462;SDS011;218;51.902;9.542;2022-12-08T11:45:01;5.20;;;4.80;;
462;SDS011;218;51.902;9.542;2022-12-08T11:47:33;5.18;;;4.70;;
462;SDS011;218;51.902;9.542;2022-12-08T11:50:14;5.60;;;5.00;;
462;SDS011;218;51.902;9.542;2022-12-08T11:52:46;6.13;;;5.20;;
462;SDS011;218;51.902;9.542;2022-12-08T11:55:22;5.60;;;5.20;;
462;SDS011;218;51.902;9.542;2022-12-08T11:57:56;6.47;;;5.55;;
462;SDS011;218;51.902;9.542;2022-12-08T12:00:27;10.88;;;8.80;;
462;SDS011;218;51.902;9.542;2022-12-08T12:02:58;7.90;;;7.10;;
462;SDS011;218;51.902;9.542;2022-12-08T12:05:32;9.43;;;8.13;;
462;SDS011;218;51.902;9.542;2022-12-08T12:08:12;8.23;;;7.43;;
462;SDS011;218;51.902;9.542;2022-12-08T12:10:57;6.97;;;6.40;;
462;SDS011;218;51.902;9.542;2022-12-08T12:13:37;6.95;;;6.25;;
462;SDS011;218;51.902;9.542;2022-12-08T12:16:24;6.60;;;5.90;;
462;SDS011;218;51.902;9.542;2022-12-08T12:19:05;5.40;;;4.90;;
462;SDS011;218;51.902;9.542;2022-12-08T12:21:38;5.75;;;5.25;;
462;SDS011;218;51.902;9.542;2022-12-08T12:24:08;6.47;;;5.97;;
462;SDS011;218;51.902;9.542;2022-12-08T12:26:50;7.47;;;5.75;;
462;SDS011;218;51.902;9.542;2022-12-08T12:29:21;6.13;;;5.45;;
462;SDS011;218;51.902;9.542;2022-12-08T12:31:51;6.43;;;5.60;;
462;SDS011;218;51.902;9.542;2022-12-08T12:34:22;6.63;;;5.90;;
462;SDS011;218;51.902;9.542;2022-12-08T12:36:52;5.88;;;5.32;;
462;SDS011;218;51.902;9.542;2022-12-08T12:39:21;6.60;;;6.00;;
462;SDS011;218;51.902;9.542;2022-12-08T12:41:53;6.25;;;5.75;;
462;SDS011;218;51.902;9.542;2022-12-08T12:44:35;7.63;;;6.82;;
462;SDS011;218;51.902;9.542;2022-12-08T12:47:06;6.63;;;6.13;;
462;SDS011;218;51.902;9.542;2022-12-08T12:49:50;7.00;;;6.35;;
462;SDS011;218;51.902;9.542;2022-12-08T12:55:19;5.80;;;5.30;;
462;SDS011;218;51.902;9.542;2022-12-08T12:57:50;6.95;;;6.15;;
462;SDS011;218;51.902;9.542;2022-12-08T13:00:19;5.60;;;5.10;;
462;SDS011;218;51.902;9.542;2022-12-08T13:02:47;5.82;;;5.28;;
462;SDS011;218;51.902;9.542;2022-12-08T13:05:16;7.05;;;6.35;;
462;SDS011;218;51.902;9.542;2022-12-08T13:07:48;6.15;;;5.55;;
462;SDS011;218;51.902;9.542;2022-12-08T13:10:18;6.53;;;5.88;;
462;SDS011;218;51.902;9.542;2022-12-08T13:13:02;6.15;;;5.57;;
462;SDS011;218;51.902;9.542;2022-12-08T13:15:32;6.53;;;5.95;;
462;SDS011;218;51.902;9.542;2022-12-08T13:18:01;7.15;;;6.45;;
462;SDS011;218;51.902;9.542;2022-12-08T13:20:28;7.97;;;7.20;;
462;SDS011;218;51.902;9.542;2022-12-08T13:23:10;6.40;;;5.80;;
462;SDS011;218;51.902;9.542;2022-12-08T13:25:50;5.72;;;5.25;;
462;SDS011;218;51.902;9.542;2022-12-08T13:28:24;7.45;;;6.70;;
462;SDS011;218;51.902;9.542;2022-12-08T13:30:54;5.10;;;4.60;;
462;SDS011;218;51.902;9.542;2022-12-08T13:33:23;6.82;;;5.80;;
462;SDS011;218;51.902;9.542;2022-12-08T13:36:00;6.57;;;5.60;;
462;SDS011;218;51.902;9.542;2022-12-08T13:38:34;6.18;;;5.65;;
462;SDS011;218;51.902;9.542;2022-12-08T13:41:04;5.35;;;4.85;;
462;SDS011;218;51.902;9.542;2022-12-08T13:43:39;7.32;;;6.60;;
462;SDS011;218;51.902;9.542;2022-12-08T13:46:10;6.13;;;5.53;;
462;SDS011;218;51.902;9.542;2022-12-08T13:48:45;6.22;;;5.63;;
462;SDS011;218;51.902;9.542;2022-12-08T13:51:16;6.55;;;5.90;;
462;SDS011;218;51.902;9.542;2022-12-08T13:53:48;6.30;;;5.70;;
462;SDS011;218;51.902;9.542;2022-12-08T13:56:17;5.97;;;5.38;;
462;SDS011;218;51.902;9.542;2022-12-08T13:58:46;5.90;;;5.35;;
462;SDS011;218;51.902;9.542;2022-12-08T14:01:18;6.35;;;5.75;;
462;SDS011;218;51.902;9.542;2022-12-08T14:03:49;6.82;;;5.93;;
462;SDS011;218;51.902;9.542;2022-12-08T14:06:23;5.35;;;4.85;;
462;SDS011;218;51.902;9.542;2022-12-08T14:09:03;6.35;;;5.80;;
462;SDS011;218;51.902;9.542;2022-12-08T14:11:34;5.88;;;5.38;;
462;SDS011;218;51.902;9.542;2022-12-08T14:14:06;6.10;;;5.50;;
462;SDS011;218;51.902;9.542;2022-12-08T14:16:35;7.68;;;6.70;;
462;SDS011;218;51.902;9.542;2022-12-08T14:19:13;6.00;;;5.50;;
462;SDS011;218;51.902;9.542;2022-12-08T14:21:45;7.30;;;6.53;;
462;SDS011;218;51.902;9.542;2022-12-08T14:24:12;6.00;;;5.50;;
462;SDS011;218;51.902;9.542;2022-12-08T14:26:39;5.90;;;5.40;;
462;SDS011;218;51.902;9.542;2022-12-08T14:29:08;6.22;;;5.68;;
462;SDS011;218;51.902;9.542;2022-12-08T14:31:35;6.50;;;5.65;;
462;SDS011;218;51.902;9.542;2022-12-08T14:34:02;6.05;;;5.45;;
462;SDS011;218;51.902;9.542;2022-12-08T14:36:29;7.18;;;6.20;;
462;SDS011;218;51.902;9.542;2022-12-08T14:38:57;6.07;;;5.57;;
462;SDS011;218;51.902;9.542;2022-12-08T14:41:25;6.20;;;5.38;;
462;SDS011;218;51.902;9.542;2022-12-08T14:43:58;5.28;;;4.78;;
462;SDS011;218;51.902;9.542;2022-12-08T14:46:27;6.70;;;6.20;;
462;SDS011;218;51.902;9.542;2022-12-08T14:48:54;6.90;;;6.30;;
462;SDS011;218;51.902;9.542;2022-12-08T14:51:24;6.63;;;5.97;;
462;SDS011;218;51.902;9.542;2022-12-08T14:53:56;5.78;;;5.10;;
462;SDS011;218;51.902;9.542;2022-12-08T14:56:26;7.30;;;5.85;;
462;SDS011;218;51.902;9.542;2022-12-08T14:59:03;7.20;;;6.60;;
462;SDS011;218;51.902;9.542;2022-12-08T15:01:33;7.25;;;6.55;;
462;SDS011;218;51.902;9.542;2022-12-08T15:04:02;6.75;;;6.25;;
462;SDS011;218;51.902;9.542;2022-12-08T15:06:34;6.43;;;5.15;;
462;SDS011;218;51.902;9.542;2022-12-08T15:09:13;7.57;;;6.85;;
462;SDS011;218;51.902;9.542;2022-12-08T15:11:42;11.35;;;9.95;;
462;SDS011;218;51.902;9.542;2022-12-08T15:14:29;9.25;;;8.30;;
462;SDS011;218;51.902;9.542;2022-12-08T15:16:59;8.57;;;7.53;;
462;SDS011;218;51.902;9.542;2022-12-08T15:19:28;7.45;;;6.70;;
462;SDS011;218;51.902;9.542;2022-12-08T15:21:57;7.18;;;6.35;;
462;SDS011;218;51.902;9.542;2022-12-08T15:24:26;7.40;;;5.80;;
462;SDS011;218;51.902;9.542;2022-12-08T15:26:59;7.07;;;6.07;;
462;SDS011;218;51.902;9.542;2022-12-08T15:29:29;6.32;;;5.65;;
462;SDS011;218;51.902;9.542;2022-12-08T15:31:56;5.60;;;5.10;;
462;SDS011;218;51.902;9.542;2022-12-08T15:34:26;6.63;;;5.38;;
462;SDS011;218;51.902;9.542;2022-12-08T15:36:53;6.85;;;6.15;;
462;SDS011;218;51.902;9.542;2022-12-08T15:39:24;6.47;;;5.82;;
462;SDS011;218;51.902;9.542;2022-12-08T15:41:56;5.32;;;4.93;;
462;SDS011;218;51.902;9.542;2022-12-08T15:44:23;6.78;;;5.93;;
462;SDS011;218;51.902;9.542;2022-12-08T15:46:51;6.80;;;6.15;;
462;SDS011;218;51.902;9.542;2022-12-08T15:49:20;6.72;;;6.03;;
462;SDS011;218;51.902;9.542;2022-12-08T15:51:48;8.20;;;6.45;;
462;SDS011;218;51.902;9.542;2022-12-08T15:54:17;9.38;;;6.93;;
462;SDS011;218;51.902;9.542;2022-12-08T15:56:45;7.75;;;6.82;;